createdAt,value
2023-02-19T00:00:01.441Z,91143.14
2023-02-19T00:02:29.981Z,91139.02
2023-02-19T00:04:58.268Z,91150.14
2023-02-19T00:07:26.497Z,91149.64
2023-02-19T00:09:54.841Z,91150.45
2023-02-19T00:12:23.046Z,91146.92
2023-02-19T00:14:51.265Z,91151.11
2023-02-19T00:17:19.414Z,91146.67
2023-02-19T00:19:47.552Z,91150.09
2023-02-19T00:22:15.835Z,91144.52
2023-02-19T00:24:44.111Z,91129.13
2023-02-19T00:27:12.362Z,91130.07
2023-02-19T00:29:40.887Z,91130.33
2023-02-19T00:32:09.185Z,91130.20
2023-02-19T00:34:37.471Z,91124.29
2023-02-19T00:37:05.707Z,91125.86
2023-02-19T00:39:33.957Z,91130.25
2023-02-19T00:42:02.270Z,91123.35
2023-02-19T00:44:30.494Z,91120.13
2023-02-19T00:46:58.665Z,91118.84
2023-02-19T00:49:26.871Z,91119.60
2023-02-19T00:51:55.193Z,91120.29
2023-02-19T00:54:24.158Z,91118.19
2023-02-19T00:56:52.401Z,91116.54
2023-02-19T00:59:21.009Z,91114.52
2023-02-19T01:01:49.957Z,91114.98
2023-02-19T01:04:18.871Z,91114.84
2023-02-19T01:06:48.983Z,91120.52
2023-02-19T01:09:17.329Z,91118.27
2023-02-19T01:11:45.970Z,91119.64
2023-02-19T01:14:14.280Z,91121.39
2023-02-19T01:16:42.680Z,91123.48
2023-02-19T01:19:11.522Z,91119.02
2023-02-19T01:21:40.837Z,91112.84
2023-02-19T01:24:09.845Z,91112.38
2023-02-19T01:26:38.104Z,91118.85
2023-02-19T01:29:06.488Z,91126.19
2023-02-19T01:31:36.677Z,91133.73
2023-02-19T01:34:06.520Z,91144.10
2023-02-19T01:36:34.795Z,91147.96
2023-02-19T01:39:06.037Z,91153.44
2023-02-19T01:41:40.425Z,91161.62
2023-02-19T01:44:28.579Z,91159.52
2023-02-19T01:46:59.854Z,91161.07
2023-02-19T01:49:31.907Z,91163.23
2023-02-19T01:52:14.459Z,91165.85
2023-02-19T01:54:45.894Z,91166.06
2023-02-19T01:57:19.453Z,91162.48
2023-02-19T01:59:55.032Z,91165.42
2023-02-19T02:02:25.304Z,91161.25
2023-02-19T02:04:54.258Z,91162.05
2023-02-19T02:07:41.594Z,91158.55
2023-02-19T02:10:21.903Z,91161.83
2023-02-19T02:12:52.589Z,91160.95
2023-02-19T02:15:22.513Z,91164.77
2023-02-19T02:17:58.117Z,91165.02
2023-02-19T02:20:44.736Z,91166.36
2023-02-19T02:23:39.409Z,91168.24
2023-02-19T02:26:37.096Z,91171.39
2023-02-19T02:29:40.533Z,91170.23
2023-02-19T02:32:15.765Z,91184.46
2023-02-19T02:34:54.777Z,91184.08
2023-02-19T02:37:25.882Z,91182.16
2023-02-19T02:39:55.433Z,91181.62
2023-02-19T02:42:30.349Z,91186.94
2023-02-19T02:45:38.252Z,91193.47
2023-02-19T02:48:28.084Z,91201.23
2023-02-19T02:50:59.690Z,91203.45
2023-02-19T02:54:03.548Z,91210.34
2023-02-19T02:56:33.074Z,91216.57
2023-02-19T02:59:04.260Z,91227.52
2023-02-19T03:02:02.513Z,91222.35
2023-02-19T03:05:17.075Z,91228.77
2023-02-19T03:07:55.989Z,91232.28
2023-02-19T03:10:31.556Z,91230.20
2023-02-19T03:13:41.817Z,91232.48
2023-02-19T03:16:43.598Z,91233.70
2023-02-19T03:19:19.398Z,91244.29
2023-02-19T03:21:54.632Z,91240.09
2023-02-19T03:24:54.362Z,91247.64
2023-02-19T03:27:28.628Z,91248.01
2023-02-19T03:30:02.624Z,91249.05
2023-02-19T03:33:20.655Z,91252.59
2023-02-19T03:36:00.562Z,91249.61
2023-02-19T03:38:57.236Z,91250.98
2023-02-19T03:41:26.042Z,91256.94
2023-02-19T03:44:22.397Z,91254.67
2023-02-19T03:47:14.641Z,91252.13
2023-02-19T03:50:03.264Z,91259.39
2023-02-19T03:52:59.597Z,91267.98
2023-02-19T03:55:39.970Z,91261.47
2023-02-19T03:58:26.500Z,91268.75
2023-02-19T04:01:06.418Z,91268.96
2023-02-19T04:03:49.959Z,91269.10
2023-02-19T04:06:25.091Z,91272.40
2023-02-19T04:08:59.145Z,91273.23
2023-02-19T04:11:29.027Z,91270.61
2023-02-19T04:14:07.336Z,91268.98
2023-02-19T04:16:40.703Z,91272.68
2023-02-19T04:19:12.288Z,91273.38
2023-02-19T04:21:42.288Z,91272.92
2023-02-19T04:24:19.666Z,91276.89
2023-02-19T04:26:48.254Z,91278.92
2023-02-19T04:29:16.525Z,91280.02
2023-02-19T04:31:44.857Z,91282.73
2023-02-19T04:34:13.082Z,91286.70
2023-02-19T04:36:41.253Z,91297.63
2023-02-19T04:39:09.476Z,91297.39
2023-02-19T04:41:37.683Z,91300.02
2023-02-19T04:44:05.897Z,91301.89
2023-02-19T04:46:34.171Z,91309.69
2023-02-19T04:49:02.436Z,91312.91
2023-02-19T04:51:30.684Z,91311.83
2023-02-19T04:53:58.955Z,91318.39
2023-02-19T04:56:27.421Z,91314.50
2023-02-19T04:58:56.019Z,91322.98
2023-02-19T05:01:25.141Z,91323.45
2023-02-19T05:03:53.305Z,91324.64
2023-02-19T05:06:21.566Z,91326.21
2023-02-19T05:08:49.731Z,91327.10
2023-02-19T05:11:17.952Z,91338.20
2023-02-19T05:13:46.149Z,91337.47
2023-02-19T05:16:16.365Z,91330.63
2023-02-19T05:18:46.811Z,91332.36
2023-02-19T05:21:15.535Z,91335.25
2023-02-19T05:23:44.047Z,91337.76
2023-02-19T05:26:18.062Z,91335.20
2023-02-19T05:28:49.373Z,91337.49
2023-02-19T05:31:18.288Z,91337.63
2023-02-19T05:33:51.158Z,91339.80
2023-02-19T05:36:20.428Z,91342.57
2023-02-19T05:38:53.066Z,91344.73
2023-02-19T05:41:24.881Z,91346.15
2023-02-19T05:43:53.677Z,91345.99
2023-02-19T05:46:24.556Z,91346.05
2023-02-19T05:48:54.283Z,91340.53
2023-02-19T05:51:25.064Z,91334.68
2023-02-19T05:53:55.256Z,91329.36
2023-02-19T05:56:26.107Z,91331.20
2023-02-19T05:58:55.071Z,91333.26
2023-02-19T06:01:25.942Z,91334.83
2023-02-19T06:03:57.258Z,91328.23
2023-02-19T06:06:27.300Z,91322.77
2023-02-19T06:08:55.792Z,91314.51
2023-02-19T06:11:24.864Z,91305.73
2023-02-19T06:13:53.162Z,91310.70
2023-02-19T06:16:22.258Z,91306.13
2023-02-19T06:18:50.730Z,91304.66
2023-02-19T06:21:19.466Z,91304.37
2023-02-19T06:23:47.765Z,91309.54
2023-02-19T06:26:18.911Z,91304.89
2023-02-19T06:28:49.162Z,91304.05
2023-02-19T06:31:18.989Z,91301.00
2023-02-19T06:33:47.979Z,91299.52
2023-02-19T06:36:18.947Z,91306.09
2023-02-19T06:38:47.494Z,91309.16
2023-02-19T06:41:15.998Z,91309.66
2023-02-19T06:43:44.227Z,91305.65
2023-02-19T06:46:13.675Z,91305.73
2023-02-19T06:48:43.691Z,91307.25
2023-02-19T06:51:13.922Z,91306.10
2023-02-19T06:53:42.403Z,91293.92
2023-02-19T06:56:26.194Z,91302.02
2023-02-19T06:58:57.941Z,91304.41
2023-02-19T07:01:26.768Z,91309.30
2023-02-19T07:03:54.996Z,91303.33
2023-02-19T07:06:25.322Z,91302.69
2023-02-19T07:08:55.666Z,91293.95
2023-02-19T07:11:25.167Z,91295.67
2023-02-19T07:13:57.070Z,91295.36
2023-02-19T07:16:25.665Z,91297.31
2023-02-19T07:18:57.103Z,91292.61
2023-02-19T07:21:26.014Z,91287.09
2023-02-19T07:23:54.886Z,91288.16
2023-02-19T07:26:24.091Z,91288.39
2023-02-19T07:28:53.117Z,91283.94
2023-02-19T07:31:23.590Z,91273.84
2023-02-19T07:33:53.029Z,91262.77
2023-02-19T07:36:23.489Z,91263.13
2023-02-19T07:39:00.659Z,91264.02
2023-02-19T07:41:29.064Z,91263.20
2023-02-19T07:43:59.089Z,91263.20
2023-02-19T07:46:27.477Z,91266.10
2023-02-19T07:48:55.665Z,91258.90
2023-02-19T07:51:24.142Z,91257.63
2023-02-19T07:53:52.502Z,91256.67
2023-02-19T07:56:21.345Z,91254.82
2023-02-19T07:58:50.123Z,91252.28
2023-02-19T08:01:40.890Z,91251.02
2023-02-19T08:04:11.128Z,91248.38
2023-02-19T08:06:40.335Z,91244.77
2023-02-19T08:09:08.935Z,91238.06
2023-02-19T08:11:56.205Z,91243.12
2023-02-19T08:14:28.268Z,91239.60
2023-02-19T08:16:57.145Z,91244.57
2023-02-19T08:19:25.660Z,91246.95
2023-02-19T08:21:53.918Z,91243.77
2023-02-19T08:24:22.265Z,91251.67
2023-02-19T08:26:50.821Z,91245.02
2023-02-19T08:29:19.118Z,91244.42
2023-02-19T08:31:47.401Z,91244.71
2023-02-19T08:34:15.689Z,91251.34
2023-02-19T08:36:44.371Z,91264.13
2023-02-19T08:39:12.634Z,91269.95
2023-02-19T08:41:40.877Z,91276.80
2023-02-19T08:44:09.167Z,91276.56
2023-02-19T08:46:38.205Z,91269.50
2023-02-19T08:49:06.420Z,91263.77
2023-02-19T08:51:34.648Z,91274.95
2023-02-19T08:54:04.406Z,91271.50
2023-02-19T08:56:32.667Z,91268.95
2023-02-19T08:59:00.939Z,91274.33
2023-02-19T09:01:29.207Z,91269.67
2023-02-19T09:03:57.526Z,91265.73
2023-02-19T09:06:25.845Z,91269.59
2023-02-19T09:08:54.042Z,91263.52
2023-02-19T09:11:22.340Z,91262.58
2023-02-19T09:13:50.603Z,91260.98
2023-02-19T09:16:18.830Z,91256.02
2023-02-19T09:18:47.123Z,91254.04
2023-02-19T09:21:15.342Z,91255.08
2023-02-19T09:23:43.633Z,91252.24
2023-02-19T09:26:11.907Z,91249.93
2023-02-19T09:28:42.144Z,91248.13
2023-02-19T09:31:16.375Z,91251.40
2023-02-19T09:33:46.094Z,91246.23
2023-02-19T09:36:16.462Z,91252.05
2023-02-19T09:38:45.549Z,91250.88
2023-02-19T09:41:35.839Z,91242.59
2023-02-19T09:44:10.257Z,91240.78
2023-02-19T09:46:44.178Z,91243.75
2023-02-19T09:49:19.870Z,91244.04
2023-02-19T09:51:56.245Z,91253.20
2023-02-19T09:54:30.641Z,91258.44
2023-02-19T09:57:02.006Z,91257.09
2023-02-19T09:59:57.675Z,91255.96
2023-02-19T10:02:27.786Z,91246.39
2023-02-19T10:04:56.119Z,91243.27
2023-02-19T10:07:46.045Z,91246.25
2023-02-19T10:10:14.186Z,91245.81
2023-02-19T10:12:52.368Z,91246.23
2023-02-19T10:15:35.024Z,91248.66
2023-02-19T10:18:05.606Z,91247.79
2023-02-19T10:20:34.189Z,91255.27
2023-02-19T10:23:07.079Z,91255.16
2023-02-19T10:25:35.799Z,91256.92
2023-02-19T10:28:05.164Z,91255.83
2023-02-19T10:30:36.074Z,91247.95
2023-02-19T10:33:13.307Z,91248.95
2023-02-19T10:36:08.078Z,91253.67
2023-02-19T10:38:45.723Z,91247.86
2023-02-19T10:41:21.140Z,91247.69
2023-02-19T10:44:13.856Z,91248.39
2023-02-19T10:46:48.868Z,91258.93
2023-02-19T10:49:26.632Z,91265.71
2023-02-19T10:51:57.273Z,91263.00
2023-02-19T10:54:29.849Z,91263.34
2023-02-19T10:57:16.294Z,91265.09
2023-02-19T10:59:58.311Z,91259.55
2023-02-19T11:02:27.947Z,91251.55
2023-02-19T11:05:07.645Z,91247.31
2023-02-19T11:07:46.197Z,91248.85
2023-02-19T11:10:42.474Z,91239.61
2023-02-19T11:13:24.117Z,91236.73
2023-02-19T11:15:55.406Z,91234.10
2023-02-19T11:18:27.464Z,91227.28
2023-02-19T11:21:01.687Z,91220.80
2023-02-19T11:23:45.010Z,91218.72
2023-02-19T11:26:20.316Z,91211.27
2023-02-19T11:28:56.261Z,91211.38
2023-02-19T11:31:28.401Z,91206.14
2023-02-19T11:34:01.086Z,91194.02
2023-02-19T11:36:37.787Z,91196.33
2023-02-19T11:39:17.930Z,91201.48
2023-02-19T11:41:58.427Z,91184.91
2023-02-19T11:44:52.806Z,91180.52
2023-02-19T11:47:33.087Z,91176.86
2023-02-19T11:50:19.435Z,91175.20
2023-02-19T11:53:12.669Z,91175.71
2023-02-19T11:55:59.678Z,91176.67
2023-02-19T11:58:49.569Z,91172.59
2023-02-19T12:01:49.618Z,91163.43
2023-02-19T12:04:28.875Z,91151.85
2023-02-19T12:06:57.050Z,91151.63
2023-02-19T12:09:49.648Z,91155.32
2023-02-19T12:12:21.862Z,91157.72
2023-02-19T12:15:10.487Z,91156.23
2023-02-19T12:18:12.689Z,91156.88
2023-02-19T12:20:57.493Z,91154.42
2023-02-19T12:23:44.102Z,91151.27
2023-02-19T12:26:30.589Z,91160.02
2023-02-19T12:29:04.952Z,91164.09
2023-02-19T12:32:13.478Z,91164.33
2023-02-19T12:35:04.952Z,91166.40
2023-02-19T12:37:56.303Z,91162.60
2023-02-19T12:40:30.766Z,91162.30
2023-02-19T12:43:01.744Z,91171.40
2023-02-19T12:45:48.208Z,91169.20
2023-02-19T12:48:40.282Z,91168.02
2023-02-19T12:51:26.045Z,91176.14
2023-02-19T12:53:57.305Z,91183.98
2023-02-19T12:56:30.991Z,91174.45
2023-02-19T12:59:03.737Z,91188.31
2023-02-19T13:01:43.251Z,91197.26
2023-02-19T13:04:34.776Z,91195.53
2023-02-19T13:07:13.388Z,91190.52
2023-02-19T13:09:48.605Z,91202.45
2023-02-19T13:12:34.050Z,91197.14
2023-02-19T13:15:20.468Z,91199.30
2023-02-19T13:17:55.749Z,91206.58
2023-02-19T13:20:31.122Z,91206.19
2023-02-19T13:23:30.630Z,91204.92
2023-02-19T13:26:36.813Z,91203.39
2023-02-19T13:29:16.311Z,91200.94
2023-02-19T13:32:18.058Z,91196.08
2023-02-19T13:35:30.997Z,91199.20
2023-02-19T13:40:42.439Z,91182.66
2023-02-19T13:43:26.156Z,91175.77
2023-02-19T13:46:01.123Z,91175.92
2023-02-19T13:48:31.756Z,91175.77
2023-02-19T13:51:27.408Z,91169.86
2023-02-19T13:54:00.639Z,91175.95
2023-02-19T13:56:32.435Z,91171.23
2023-02-19T13:59:34.797Z,91174.55
2023-02-19T14:02:02.996Z,91173.18
2023-02-19T14:04:40.228Z,91160.96
2023-02-19T14:07:08.402Z,91161.56
2023-02-19T14:09:45.395Z,91160.26
2023-02-19T14:12:15.667Z,91159.17
2023-02-19T14:14:55.623Z,91159.45
2023-02-19T14:17:35.875Z,91168.19
2023-02-19T14:20:45.460Z,91162.73
2023-02-19T14:23:31.943Z,91159.73
2023-02-19T14:26:02.540Z,91157.63
2023-02-19T14:28:36.734Z,91156.21
2023-02-19T14:31:29.203Z,91152.55
2023-02-19T14:34:23.640Z,91153.36
2023-02-19T14:36:59.113Z,91156.39
2023-02-19T14:39:40.699Z,91157.44
2023-02-19T14:42:17.982Z,91156.25
2023-02-19T14:44:52.526Z,91154.77
2023-02-19T14:47:24.359Z,91151.73
2023-02-19T14:50:03.522Z,91150.10
2023-02-19T14:52:41.148Z,91140.94
2023-02-19T14:55:33.323Z,91142.65
2023-02-19T14:58:07.070Z,91140.83
2023-02-19T15:00:40.796Z,91137.91
2023-02-19T15:03:32.949Z,91137.26
2023-02-19T15:06:06.045Z,91134.42
2023-02-19T15:08:42.708Z,91131.23
2023-02-19T15:11:23.186Z,91131.66
2023-02-19T15:13:55.630Z,91133.61
2023-02-19T15:16:26.514Z,91130.38
2023-02-19T15:18:58.163Z,91122.88
2023-02-19T15:21:30.154Z,91120.27
2023-02-19T15:24:06.365Z,91124.23
2023-02-19T15:26:37.770Z,91122.67
2023-02-19T15:29:17.868Z,91121.45
2023-02-19T15:31:54.112Z,91127.50
2023-02-19T15:34:28.660Z,91128.61
2023-02-19T15:37:00.747Z,91119.21
2023-02-19T15:39:33.739Z,91116.70
2023-02-19T15:42:04.134Z,91112.05
2023-02-19T15:44:35.355Z,91114.08
2023-02-19T15:47:13.167Z,91114.98
2023-02-19T15:49:49.387Z,91115.79
2023-02-19T15:52:32.330Z,91123.13
2023-02-19T15:55:05.423Z,91118.55
2023-02-19T15:57:41.485Z,91120.73
2023-02-19T16:00:32.613Z,91115.58
2023-02-19T16:03:01.992Z,91120.14
2023-02-19T16:05:31.331Z,91122.98
2023-02-19T16:08:11.672Z,91130.85
2023-02-19T16:10:39.953Z,91143.15
2023-02-19T16:13:12.257Z,91149.98
2023-02-19T16:15:40.675Z,91151.23
2023-02-19T16:18:15.262Z,91155.63
2023-02-19T16:20:47.798Z,91147.14
2023-02-19T16:23:20.848Z,91138.92
2023-02-19T16:25:49.158Z,91134.75
2023-02-19T16:28:24.222Z,91128.38
2023-02-19T16:31:03.541Z,91128.38
2023-02-19T16:33:36.634Z,91128.02
2023-02-19T16:36:18.210Z,91127.66
2023-02-19T16:39:08.393Z,91117.63
2023-02-19T16:41:45.483Z,91110.65
2023-02-19T16:44:25.910Z,91104.55
2023-02-19T16:47:15.662Z,91096.73
2023-02-19T16:49:44.421Z,91094.39
2023-02-19T16:52:15.517Z,91091.20
2023-02-19T16:54:43.763Z,91085.02
2023-02-19T16:57:12.060Z,91088.27
2023-02-19T16:59:40.245Z,91088.44
2023-02-19T17:02:14.981Z,91089.66
2023-02-19T17:04:43.344Z,91087.95
2023-02-19T17:07:17.066Z,91092.45
2023-02-19T17:09:45.406Z,91095.59
2023-02-19T17:12:16.490Z,91093.19
2023-02-19T17:14:45.271Z,91102.83
2023-02-19T17:17:13.721Z,91104.13
2023-02-19T17:19:42.050Z,91113.65
2023-02-19T17:22:13.909Z,91102.70
2023-02-19T17:24:42.141Z,91118.32
2023-02-19T17:27:12.406Z,91109.78
2023-02-19T17:29:40.685Z,91116.66
2023-02-19T17:32:09.204Z,91122.73
2023-02-19T17:34:37.475Z,91115.33
2023-02-19T17:37:05.702Z,91121.25
2023-02-19T17:39:33.895Z,91131.13
2023-02-19T17:42:02.396Z,91128.69
2023-02-19T17:44:30.624Z,91125.55
2023-02-19T17:46:58.863Z,91122.48
2023-02-19T17:49:27.118Z,91126.29
2023-02-19T17:51:55.414Z,91126.73
2023-02-19T17:54:23.571Z,91126.65
2023-02-19T17:56:51.854Z,91118.29
2023-02-19T17:59:20.094Z,91133.27
2023-02-19T18:01:48.302Z,91134.77
2023-02-19T18:04:16.618Z,91123.74
2023-02-19T18:06:44.909Z,91138.13
2023-02-19T18:09:15.460Z,91133.81
2023-02-19T18:11:46.770Z,91134.42
2023-02-19T18:14:15.009Z,91128.04
2023-02-19T18:16:50.663Z,91118.98
2023-02-19T18:19:19.263Z,91119.28
2023-02-19T18:21:47.446Z,91112.11
2023-02-19T18:24:19.587Z,91111.12
2023-02-19T18:26:47.811Z,91104.48
2023-02-19T18:29:20.139Z,91086.61
2023-02-19T18:31:48.535Z,91084.88
2023-02-19T18:34:19.288Z,91084.36
2023-02-19T18:36:48.927Z,91080.17
2023-02-19T18:39:17.147Z,91081.06
2023-02-19T18:41:50.322Z,91085.30
2023-02-19T18:44:20.955Z,91092.14
2023-02-19T18:46:49.872Z,91085.44
2023-02-19T18:49:18.544Z,91083.88
2023-02-19T18:51:47.961Z,91092.02
2023-02-19T18:54:16.287Z,91093.45
2023-02-19T18:56:45.697Z,91101.80
2023-02-19T18:59:15.786Z,91101.03
2023-02-19T19:01:44.515Z,91102.21
2023-02-19T19:04:13.204Z,91103.33
2023-02-19T19:06:41.471Z,91107.89
2023-02-19T19:09:09.848Z,91116.80
2023-02-19T19:11:38.655Z,91127.13
2023-02-19T19:14:07.969Z,91139.23
2023-02-19T19:16:38.284Z,91149.55
2023-02-19T19:19:06.658Z,91165.09
2023-02-19T19:21:34.906Z,91179.66
2023-02-19T19:24:03.293Z,91188.24
2023-02-19T19:26:31.617Z,91220.27
2023-02-19T19:29:00.187Z,91217.53
2023-02-19T19:31:35.086Z,91203.67
2023-02-19T19:34:04.427Z,91204.23
2023-02-19T19:36:32.985Z,91203.80
2023-02-19T19:39:01.516Z,91200.92
2023-02-19T19:41:30.079Z,91201.92
2023-02-19T19:44:06.185Z,91191.80
2023-02-19T19:46:35.910Z,91180.23
2023-02-19T19:49:04.069Z,91176.59
2023-02-19T19:51:34.233Z,91175.62
2023-02-19T19:54:04.328Z,91181.95
2023-02-19T19:56:32.607Z,91184.80
2023-02-19T19:59:00.909Z,91180.54
2023-02-19T20:01:29.107Z,91177.27
2023-02-19T20:03:57.351Z,91178.85
2023-02-19T20:06:28.754Z,91166.90
2023-02-19T20:08:57.559Z,91164.22
2023-02-19T20:11:26.290Z,91163.90
2023-02-19T20:13:54.582Z,91163.98
2023-02-19T20:16:27.993Z,91162.63
2023-02-19T20:18:56.205Z,91164.57
2023-02-19T20:21:24.493Z,91169.42
2023-02-19T20:23:52.662Z,91170.77
2023-02-19T20:26:25.877Z,91172.75
2023-02-19T20:28:55.264Z,91180.68
2023-02-19T20:31:24.543Z,91185.55
2023-02-19T20:33:53.094Z,91190.41
2023-02-19T20:36:21.340Z,91190.55
2023-02-19T20:38:50.102Z,91190.26
2023-02-19T20:41:18.257Z,91204.75
2023-02-19T20:43:46.526Z,91208.72
2023-02-19T20:46:15.037Z,91213.65
2023-02-19T20:48:43.449Z,91216.88
2023-02-19T20:51:11.654Z,91220.70
2023-02-19T20:53:42.584Z,91222.27
2023-02-19T20:56:11.735Z,91221.14
2023-02-19T20:58:43.489Z,91219.13
2023-02-19T21:01:12.267Z,91216.73
2023-02-19T21:03:40.746Z,91218.46
2023-02-19T21:06:08.960Z,91221.65
2023-02-19T21:08:37.224Z,91226.82
2023-02-19T21:11:05.545Z,91222.55
2023-02-19T21:13:35.299Z,91219.56
2023-02-19T21:16:03.760Z,91229.13
2023-02-19T21:18:32.040Z,91233.74
2023-02-19T21:21:00.278Z,91232.70
2023-02-19T21:23:28.559Z,91235.00
2023-02-19T21:25:57.255Z,91231.42
2023-02-19T21:28:25.555Z,91235.60
2023-02-19T21:30:54.399Z,91235.31
2023-02-19T21:33:22.674Z,91236.29
2023-02-19T21:35:50.900Z,91236.81
2023-02-19T21:38:19.099Z,91235.09
2023-02-19T21:40:47.214Z,91232.85
2023-02-19T21:43:15.498Z,91229.56
2023-02-19T21:45:43.714Z,91235.08
2023-02-19T21:48:12.010Z,91230.73
2023-02-19T21:50:40.593Z,91239.33
2023-02-19T21:53:08.773Z,91238.14
2023-02-19T21:55:38.559Z,91243.67
2023-02-19T21:58:07.945Z,91242.33
2023-02-19T22:00:36.450Z,91237.33
2023-02-19T22:03:04.620Z,91236.01
2023-02-19T22:05:33.450Z,91245.86
2023-02-19T22:08:01.830Z,91247.83
2023-02-19T22:10:30.059Z,91248.27
2023-02-19T22:12:58.320Z,91245.64
2023-02-19T22:15:26.514Z,91240.20
2023-02-19T22:17:54.632Z,91237.14
2023-02-19T22:20:22.839Z,91230.71
2023-02-19T22:22:51.110Z,91248.17
2023-02-19T22:25:19.352Z,91253.77
2023-02-19T22:27:49.126Z,91250.27
2023-02-19T22:30:17.705Z,91247.83
2023-02-19T22:32:45.957Z,91253.86
2023-02-19T22:35:15.768Z,91244.45
2023-02-19T22:37:44.189Z,91249.44
2023-02-19T22:40:12.703Z,91256.31
2023-02-19T22:42:40.897Z,91256.09
2023-02-19T22:45:11.963Z,91262.76
2023-02-19T22:47:40.267Z,91263.94
2023-02-19T22:50:09.134Z,91259.32
2023-02-19T22:52:37.409Z,91261.70
2023-02-19T22:55:05.763Z,91272.15
2023-02-19T22:57:34.096Z,91269.52
2023-02-19T23:00:04.575Z,91266.24
2023-02-19T23:02:33.170Z,91269.02
2023-02-19T23:05:01.486Z,91266.98
2023-02-19T23:07:29.718Z,91268.20
2023-02-19T23:09:58.024Z,91271.84
2023-02-19T23:12:26.269Z,91271.10
2023-02-19T23:14:54.533Z,91265.71
2023-02-19T23:17:22.694Z,91265.73
2023-02-19T23:19:50.860Z,91270.86
2023-02-19T23:22:19.586Z,91278.10
2023-02-19T23:24:47.886Z,91284.08
2023-02-19T23:27:16.131Z,91293.88
2023-02-19T23:29:44.402Z,91295.42
2023-02-19T23:32:12.996Z,91298.64
2023-02-19T23:34:41.266Z,91297.08
2023-02-19T23:37:09.440Z,91296.70
2023-02-19T23:39:37.652Z,91298.95
2023-02-19T23:42:05.948Z,91299.62
2023-02-19T23:44:34.219Z,91299.09
2023-02-19T23:47:02.479Z,91299.77
2023-02-19T23:49:30.682Z,91305.06
2023-02-19T23:51:58.849Z,91305.51
2023-02-19T23:54:27.124Z,91308.13
2023-02-19T23:56:56.547Z,91301.86
2023-02-19T23:59:24.691Z,91306.04
